createdAt,value
2018-09-16T00:01:00.005Z,4.83
2018-09-16T00:06:03.847Z,4.93
2018-09-16T00:11:07.622Z,4.80
2018-09-16T00:16:12.245Z,5.20
2018-09-16T00:21:17.434Z,5.37
2018-09-16T00:26:21.155Z,5.40
2018-09-16T00:31:25.466Z,5.80
2018-09-16T00:36:31.735Z,5.10
2018-09-16T00:41:37.158Z,4.90
2018-09-16T00:46:43.764Z,5.53
2018-09-16T00:51:47.503Z,4.80
2018-09-16T00:56:51.444Z,4.73
2018-09-16T01:01:56.756Z,4.10
2018-09-16T01:07:01.344Z,4.17
2018-09-16T01:12:05.505Z,4.63
2018-09-16T01:17:11.081Z,4.73
2018-09-16T01:22:15.759Z,4.80
2018-09-16T01:27:20.800Z,4.20
2018-09-16T01:32:26.206Z,4.83
2018-09-16T01:37:35.734Z,4.90
2018-09-16T01:42:40.719Z,4.67
2018-09-16T01:47:45.390Z,4.63
2018-09-16T01:52:51.668Z,4.60
2018-09-16T01:57:55.563Z,4.73
2018-09-16T02:02:59.501Z,4.37
2018-09-16T02:08:05.422Z,4.97
2018-09-16T02:13:11.020Z,5.07
2018-09-16T02:18:16.134Z,4.90
2018-09-16T02:23:20.677Z,5.23
2018-09-16T02:28:25.702Z,5.27
2018-09-16T02:33:31.239Z,4.70
2018-09-16T02:38:36.245Z,4.97
2018-09-16T02:43:40.276Z,4.70
2018-09-16T02:48:47.969Z,4.50
2018-09-16T02:53:52.607Z,4.57
2018-09-16T02:58:57.001Z,5.20
2018-09-16T03:04:01.204Z,5.00
2018-09-16T03:09:09.286Z,5.40
2018-09-16T03:14:17.823Z,5.03
2018-09-16T03:19:23.252Z,5.30
2018-09-16T03:24:27.030Z,5.10
2018-09-16T03:29:31.546Z,6.00
2018-09-16T03:34:38.664Z,5.90
2018-09-16T03:39:42.880Z,5.20
2018-09-16T03:44:49.801Z,5.23
2018-09-16T03:49:55.101Z,5.83
2018-09-16T03:55:00.437Z,5.50
2018-09-16T04:00:05.005Z,5.63
2018-09-16T04:05:09.406Z,6.27
2018-09-16T04:10:15.191Z,6.40
2018-09-16T04:15:19.366Z,7.10
2018-09-16T04:20:23.262Z,6.90
2018-09-16T04:25:28.681Z,7.00
2018-09-16T04:30:32.510Z,6.60
2018-09-16T04:35:37.036Z,6.90
2018-09-16T04:40:40.850Z,8.17
2018-09-16T04:45:45.997Z,6.23
2018-09-16T04:50:50.666Z,7.50
2018-09-16T04:55:56.776Z,8.27
2018-09-16T05:01:01.433Z,8.30
2018-09-16T05:06:05.970Z,7.07
2018-09-16T05:11:10.283Z,7.43
2018-09-16T05:16:14.900Z,7.27
2018-09-16T05:21:19.286Z,7.57
2018-09-16T05:26:23.986Z,7.00
2018-09-16T05:31:29.051Z,7.77
2018-09-16T05:36:35.386Z,8.90
2018-09-16T05:41:40.172Z,7.30
2018-09-16T05:46:45.358Z,8.93
2018-09-16T05:51:50.635Z,8.43
2018-09-16T05:57:00.103Z,7.30
2018-09-16T06:02:19.509Z,8.20
2018-09-16T06:07:38.669Z,9.87
2018-09-16T06:13:02.625Z,8.97
2018-09-16T06:18:07.154Z,10.70
2018-09-16T06:23:11.480Z,10.80
2018-09-16T06:28:16.547Z,11.33
2018-09-16T06:33:22.567Z,10.47
2018-09-16T06:38:27.994Z,10.13
2018-09-16T06:43:32.448Z,10.90
2018-09-16T06:48:37.261Z,10.30
2018-09-16T06:53:42.023Z,11.17
2018-09-16T06:58:46.607Z,10.10
2018-09-16T07:03:52.527Z,10.83
2018-09-16T07:08:57.059Z,11.30
2018-09-16T07:14:03.565Z,10.97
2018-09-16T07:19:09.066Z,10.97
2018-09-16T07:24:14.306Z,10.87
2018-09-16T07:29:19.072Z,11.43
2018-09-16T07:34:22.986Z,11.07
2018-09-16T07:39:27.417Z,11.13
2018-09-16T07:44:32.895Z,12.63
2018-09-16T07:49:38.130Z,10.77
2018-09-16T07:54:42.892Z,11.20
2018-09-16T07:59:47.308Z,10.90
2018-09-16T08:04:53.919Z,10.93
2018-09-16T08:10:00.246Z,10.40
2018-09-16T08:15:12.475Z,11.10
2018-09-16T08:20:18.480Z,10.10
2018-09-16T08:25:24.227Z,9.83
2018-09-16T08:30:48.221Z,9.43
2018-09-16T08:35:52.047Z,9.00
2018-09-16T08:40:57.598Z,8.30
2018-09-16T08:46:01.846Z,8.23
2018-09-16T08:51:08.744Z,8.10
2018-09-16T08:56:13.340Z,9.00
2018-09-16T09:01:17.132Z,9.00
2018-09-16T09:06:23.151Z,8.00
2018-09-16T09:11:27.418Z,8.43
2018-09-16T09:16:31.828Z,8.53
2018-09-16T09:21:36.752Z,8.27
2018-09-16T09:26:42.832Z,9.43
2018-09-16T09:31:46.697Z,9.10
2018-09-16T09:36:52.347Z,8.87
2018-09-16T09:41:57.570Z,8.80
2018-09-16T09:47:03.532Z,9.10
2018-09-16T09:52:07.280Z,9.37
2018-09-16T09:57:12.058Z,8.97
2018-09-16T10:02:17.098Z,8.20
2018-09-16T10:07:30.449Z,8.97
2018-09-16T10:12:35.573Z,8.07
2018-09-16T10:17:42.718Z,9.00
2018-09-16T10:22:48.241Z,8.80
2018-09-16T10:27:53.931Z,8.70
2018-09-16T10:32:59.793Z,8.30
2018-09-16T10:38:08.991Z,9.50
2018-09-16T10:43:29.214Z,7.80
2018-09-16T10:48:33.391Z,7.60
2018-09-16T10:53:46.079Z,9.77
2018-09-16T10:58:50.849Z,8.80
2018-09-16T11:03:55.262Z,7.13
2018-09-16T11:08:59.348Z,8.50
2018-09-16T11:14:08.404Z,7.20
2018-09-16T11:24:40.242Z,8.30
2018-09-16T11:29:51.030Z,8.33
2018-09-16T11:34:56.119Z,8.30
2018-09-16T11:39:59.971Z,8.00
2018-09-16T11:45:04.765Z,7.40
2018-09-16T11:50:10.444Z,7.40
2018-09-16T11:55:15.884Z,10.10
2018-09-16T12:00:21.601Z,6.70
2018-09-16T12:05:25.910Z,5.87
2018-09-16T12:10:31.112Z,6.97
2018-09-16T12:15:35.527Z,6.37
2018-09-16T12:20:41.664Z,7.53
2018-09-16T12:25:46.119Z,5.97
2018-09-16T12:30:52.324Z,6.47
2018-09-16T12:35:57.843Z,6.10
2018-09-16T12:41:02.260Z,6.10
2018-09-16T12:46:07.195Z,6.13
2018-09-16T12:51:12.733Z,6.60
2018-09-16T12:56:18.421Z,6.67
2018-09-16T13:01:22.801Z,6.60
2018-09-16T13:06:27.545Z,6.63
2018-09-16T13:11:32.235Z,6.20
2018-09-16T13:16:37.950Z,5.47
2018-09-16T13:21:42.502Z,6.07
2018-09-16T13:26:47.116Z,7.00
2018-09-16T13:31:51.662Z,6.57
2018-09-16T13:36:56.335Z,6.57
2018-09-16T13:42:03.117Z,6.00
2018-09-16T13:47:07.453Z,5.87
2018-09-16T13:52:11.073Z,5.60
2018-09-16T13:57:28.295Z,6.10
2018-09-16T14:02:32.658Z,5.80
2018-09-16T14:07:37.494Z,6.67
2018-09-16T14:12:41.703Z,5.77
2018-09-16T14:17:45.469Z,7.27
2018-09-16T14:22:57.472Z,6.50
2018-09-16T14:28:01.167Z,7.33
2018-09-16T14:33:05.896Z,6.80
2018-09-16T14:38:10.072Z,6.93
2018-09-16T14:43:15.580Z,10.57
2018-09-16T14:48:53.082Z,12.37
2018-09-16T14:53:57.376Z,6.13
2018-09-16T14:59:01.390Z,7.60
2018-09-16T15:04:38.164Z,9.07
2018-09-16T15:09:44.549Z,8.63
2018-09-16T15:14:54.902Z,14.73
2018-09-16T15:19:59.797Z,20.07
2018-09-16T15:25:09.070Z,15.87
2018-09-16T15:30:13.088Z,32.00
2018-09-16T15:35:17.358Z,9.90
2018-09-16T15:40:24.408Z,10.70
2018-09-16T15:45:28.632Z,7.77
2018-09-16T15:50:33.468Z,10.83
2018-09-16T15:55:37.751Z,7.50
2018-09-16T16:00:41.449Z,7.60
2018-09-16T16:05:45.252Z,7.10
2018-09-16T16:10:49.003Z,7.50
2018-09-16T16:15:54.056Z,6.70
2018-09-16T16:20:58.285Z,7.77
2018-09-16T16:26:02.235Z,7.40
2018-09-16T16:31:08.115Z,5.57
2018-09-16T16:36:12.590Z,6.83
2018-09-16T16:41:18.080Z,7.20
2018-09-16T16:46:22.107Z,6.30
2018-09-16T16:51:26.424Z,5.90
2018-09-16T16:56:31.081Z,7.70
2018-09-16T17:01:35.477Z,7.90
2018-09-16T17:06:40.215Z,7.30
2018-09-16T17:11:44.439Z,7.50
2018-09-16T17:16:54.249Z,7.40
2018-09-16T17:21:58.357Z,7.47
2018-09-16T17:27:05.669Z,7.93
2018-09-16T17:32:09.889Z,7.00
2018-09-16T17:37:13.819Z,7.30
2018-09-16T17:42:17.942Z,7.20
2018-09-16T17:47:21.975Z,7.30
2018-09-16T17:52:25.755Z,8.00
2018-09-16T17:57:31.559Z,7.47
2018-09-16T18:02:38.172Z,7.40
2018-09-16T18:07:42.050Z,7.70
2018-09-16T18:12:48.114Z,7.00
2018-09-16T18:17:53.372Z,7.37
2018-09-16T18:22:57.582Z,7.27
2018-09-16T18:28:01.705Z,7.37
2018-09-16T18:33:05.613Z,7.33
2018-09-16T18:38:09.704Z,8.13
2018-09-16T18:43:13.735Z,7.00
2018-09-16T18:48:18.171Z,7.77
2018-09-16T18:53:21.902Z,8.07
2018-09-16T18:58:26.223Z,7.97
2018-09-16T19:03:31.904Z,8.10
2018-09-16T19:08:36.703Z,7.80
2018-09-16T19:13:40.749Z,8.00
2018-09-16T19:18:44.763Z,7.50
2018-09-16T19:24:00.621Z,7.27
2018-09-16T19:29:04.432Z,7.73
2018-09-16T19:34:08.373Z,8.53
2018-09-16T19:39:12.530Z,8.30
2018-09-16T19:44:16.648Z,8.60
2018-09-16T19:49:20.485Z,8.60
2018-09-16T19:54:24.472Z,8.87
2018-09-16T19:59:29.045Z,8.53
2018-09-16T20:04:33.814Z,8.30
2018-09-16T20:09:37.779Z,8.40
2018-09-16T20:14:42.463Z,9.00
2018-09-16T20:19:46.337Z,8.87
2018-09-16T20:24:49.951Z,8.93
2018-09-16T20:29:53.776Z,9.80
2018-09-16T20:34:57.435Z,9.10
2018-09-16T20:40:01.303Z,9.07
2018-09-16T20:45:05.225Z,9.77
2018-09-16T20:50:08.909Z,9.30
2018-09-16T20:55:13.216Z,9.00
2018-09-16T21:00:18.979Z,9.67
2018-09-16T21:05:22.953Z,10.00
2018-09-16T21:10:26.724Z,8.97
2018-09-16T21:15:30.563Z,9.40
2018-09-16T21:20:34.263Z,9.90
2018-09-16T21:25:37.991Z,9.63
2018-09-16T21:30:42.312Z,9.40
2018-09-16T21:35:46.254Z,9.40
2018-09-16T21:40:50.022Z,10.20
2018-09-16T21:45:54.441Z,10.70
2018-09-16T21:50:58.363Z,10.47
2018-09-16T21:56:02.406Z,9.83
2018-09-16T22:01:06.270Z,9.70
2018-09-16T22:06:10.524Z,8.93
2018-09-16T22:11:15.235Z,9.10
2018-09-16T22:16:18.990Z,9.53
2018-09-16T22:21:22.769Z,9.40
2018-09-16T22:26:26.974Z,8.97
2018-09-16T22:31:30.939Z,9.40
2018-09-16T22:36:35.377Z,10.07
2018-09-16T22:41:41.354Z,9.63
2018-09-16T22:46:45.696Z,9.73
2018-09-16T22:51:50.596Z,9.70
2018-09-16T22:56:56.444Z,10.23
2018-09-16T23:02:00.652Z,10.20
2018-09-16T23:07:04.899Z,9.80
2018-09-16T23:12:08.746Z,10.23
2018-09-16T23:17:13.550Z,9.90
2018-09-16T23:22:17.451Z,10.63
2018-09-16T23:27:21.467Z,8.87
2018-09-16T23:32:25.472Z,12.03
2018-09-16T23:37:29.168Z,10.93
2018-09-16T23:42:32.937Z,9.90
2018-09-16T23:47:36.790Z,9.50
2018-09-16T23:52:40.399Z,10.50
2018-09-16T23:57:44.746Z,10.60
